sensor_id;sensor_type;location;lat;lon;timestamp;temperature;humidity
18043;DHT22;9146;48.074;11.968;2023-04-01T00:02:04;7.50;99.90
18043;DHT22;9146;48.074;11.968;2023-04-01T00:04:31;7.50;99.90
18043;DHT22;9146;48.074;11.968;2023-04-01T00:06:59;7.50;99.90
18043;DHT22;9146;48.074;11.968;2023-04-01T00:09:28;7.50;99.90
18043;DHT22;9146;48.074;11.968;2023-04-01T00:11:55;7.50;99.90
18043;DHT22;9146;48.074;11.968;2023-04-01T00:14:22;7.50;99.90
18043;DHT22;9146;48.074;11.968;2023-04-01T00:16:49;7.50;99.90
18043;DHT22;9146;48.074;11.968;2023-04-01T00:19:18;7.50;99.90
18043;DHT22;9146;48.074;11.968;2023-04-01T00:21:44;7.40;99.90
18043;DHT22;9146;48.074;11.968;2023-04-01T00:24:12;7.40;99.90
18043;DHT22;9146;48.074;11.968;2023-04-01T00:26:40;7.40;99.90
18043;DHT22;9146;48.074;11.968;2023-04-01T00:29:08;7.30;99.90
18043;DHT22;9146;48.074;11.968;2023-04-01T00:31:35;7.30;99.90
18043;DHT22;9146;48.074;11.968;2023-04-01T00:34:02;7.20;99.90
18043;DHT22;9146;48.074;11.968;2023-04-01T00:36:29;7.20;99.90
18043;DHT22;9146;48.074;11.968;2023-04-01T00:38:57;7.20;99.90
18043;DHT22;9146;48.074;11.968;2023-04-01T00:41:25;7.20;99.90
18043;DHT22;9146;48.074;11.968;2023-04-01T00:44:13;7.10;99.90
18043;DHT22;9146;48.074;11.968;2023-04-01T00:46:40;7.00;99.90
18043;DHT22;9146;48.074;11.968;2023-04-01T00:49:08;7.00;99.90
18043;DHT22;9146;48.074;11.968;2023-04-01T00:51:37;7.00;99.90
18043;DHT22;9146;48.074;11.968;2023-04-01T00:54:07;7.00;99.90
18043;DHT22;9146;48.074;11.968;2023-04-01T00:56:37;7.00;99.90
18043;DHT22;9146;48.074;11.968;2023-04-01T00:59:08;6.90;99.90
18043;DHT22;9146;48.074;11.968;2023-04-01T01:01:38;6.80;99.90
18043;DHT22;9146;48.074;11.968;2023-04-01T01:04:05;6.80;99.90
18043;DHT22;9146;48.074;11.968;2023-04-01T01:06:43;6.80;99.90
18043;DHT22;9146;48.074;11.968;2023-04-01T01:09:19;6.80;99.90
18043;DHT22;9146;48.074;11.968;2023-04-01T01:11:51;6.80;99.90
18043;DHT22;9146;48.074;11.968;2023-04-01T01:14:29;6.90;99.90
18043;DHT22;9146;48.074;11.968;2023-04-01T01:17:09;6.90;99.90
18043;DHT22;9146;48.074;11.968;2023-04-01T01:20:05;6.90;99.90
18043;DHT22;9146;48.074;11.968;2023-04-01T01:22:52;7.00;99.90
18043;DHT22;9146;48.074;11.968;2023-04-01T01:25:33;7.00;99.90
18043;DHT22;9146;48.074;11.968;2023-04-01T01:28:21;7.00;99.90
18043;DHT22;9146;48.074;11.968;2023-04-01T01:31:00;7.00;99.90
18043;DHT22;9146;48.074;11.968;2023-04-01T01:33:57;7.10;99.90
18043;DHT22;9146;48.074;11.968;2023-04-01T01:36:31;7.10;99.90
18043;DHT22;9146;48.074;11.968;2023-04-01T01:39:01;7.00;99.90
18043;DHT22;9146;48.074;11.968;2023-04-01T01:41:29;7.00;99.90
18043;DHT22;9146;48.074;11.968;2023-04-01T01:43:58;7.00;99.90
18043;DHT22;9146;48.074;11.968;2023-04-01T01:46:28;7.10;99.90
18043;DHT22;9146;48.074;11.968;2023-04-01T01:48:57;7.10;99.90
18043;DHT22;9146;48.074;11.968;2023-04-01T01:51:28;7.20;99.90
18043;DHT22;9146;48.074;11.968;2023-04-01T01:53:55;7.20;99.90
18043;DHT22;9146;48.074;11.968;2023-04-01T01:56:23;7.20;99.90
18043;DHT22;9146;48.074;11.968;2023-04-01T01:58:54;7.20;99.90
18043;DHT22;9146;48.074;11.968;2023-04-01T02:01:23;7.30;99.90
18043;DHT22;9146;48.074;11.968;2023-04-01T02:03:52;7.30;99.90
18043;DHT22;9146;48.074;11.968;2023-04-01T02:06:22;7.20;99.90
18043;DHT22;9146;48.074;11.968;2023-04-01T02:08:54;7.20;99.90
18043;DHT22;9146;48.074;11.968;2023-04-01T02:11:26;7.20;99.90
18043;DHT22;9146;48.074;11.968;2023-04-01T02:13:58;7.20;99.90
18043;DHT22;9146;48.074;11.968;2023-04-01T02:16:31;7.20;99.90
18043;DHT22;9146;48.074;11.968;2023-04-01T02:19:01;7.10;99.90
18043;DHT22;9146;48.074;11.968;2023-04-01T02:21:33;7.10;99.90
18043;DHT22;9146;48.074;11.968;2023-04-01T02:24:04;7.10;99.90
18043;DHT22;9146;48.074;11.968;2023-04-01T02:26:32;7.10;99.90
18043;DHT22;9146;48.074;11.968;2023-04-01T02:29:01;7.10;99.90
18043;DHT22;9146;48.074;11.968;2023-04-01T02:31:29;7.10;99.90
18043;DHT22;9146;48.074;11.968;2023-04-01T02:33:57;7.10;99.90
18043;DHT22;9146;48.074;11.968;2023-04-01T02:36:24;7.20;99.90
18043;DHT22;9146;48.074;11.968;2023-04-01T02:38:52;7.10;99.90
18043;DHT22;9146;48.074;11.968;2023-04-01T02:41:21;7.10;99.90
18043;DHT22;9146;48.074;11.968;2023-04-01T02:43:49;7.10;99.90
18043;DHT22;9146;48.074;11.968;2023-04-01T02:46:15;7.10;99.90
18043;DHT22;9146;48.074;11.968;2023-04-01T02:48:42;7.10;99.90
18043;DHT22;9146;48.074;11.968;2023-04-01T02:51:09;7.10;99.90
18043;DHT22;9146;48.074;11.968;2023-04-01T02:53:36;7.10;99.90
18043;DHT22;9146;48.074;11.968;2023-04-01T02:56:03;7.10;99.90
18043;DHT22;9146;48.074;11.968;2023-04-01T02:58:32;7.10;99.90
18043;DHT22;9146;48.074;11.968;2023-04-01T03:00:59;7.20;99.90
18043;DHT22;9146;48.074;11.968;2023-04-01T03:03:26;7.20;99.90
18043;DHT22;9146;48.074;11.968;2023-04-01T03:05:53;7.20;99.90
18043;DHT22;9146;48.074;11.968;2023-04-01T03:08:21;7.20;99.90
18043;DHT22;9146;48.074;11.968;2023-04-01T03:10:48;7.20;99.90
18043;DHT22;9146;48.074;11.968;2023-04-01T03:13:15;7.20;99.90
18043;DHT22;9146;48.074;11.968;2023-04-01T03:15:44;7.20;99.90
18043;DHT22;9146;48.074;11.968;2023-04-01T03:18:10;7.20;99.90
18043;DHT22;9146;48.074;11.968;2023-04-01T03:20:37;7.20;99.90
18043;DHT22;9146;48.074;11.968;2023-04-01T03:23:04;7.20;99.90
18043;DHT22;9146;48.074;11.968;2023-04-01T03:25:32;7.20;99.90
18043;DHT22;9146;48.074;11.968;2023-04-01T03:27:59;7.20;99.90
18043;DHT22;9146;48.074;11.968;2023-04-01T03:30:27;7.20;99.90
18043;DHT22;9146;48.074;11.968;2023-04-01T03:32:57;7.20;99.90
18043;DHT22;9146;48.074;11.968;2023-04-01T03:35:24;7.20;99.90
18043;DHT22;9146;48.074;11.968;2023-04-01T03:37:52;7.20;99.90
18043;DHT22;9146;48.074;11.968;2023-04-01T03:40:19;7.20;99.90
18043;DHT22;9146;48.074;11.968;2023-04-01T03:42:46;7.20;99.90
18043;DHT22;9146;48.074;11.968;2023-04-01T03:45:13;7.20;99.90
18043;DHT22;9146;48.074;11.968;2023-04-01T03:47:40;7.10;99.90
18043;DHT22;9146;48.074;11.968;2023-04-01T03:50:09;7.10;99.90
18043;DHT22;9146;48.074;11.968;2023-04-01T03:52:36;7.00;99.90
18043;DHT22;9146;48.074;11.968;2023-04-01T03:55:04;7.00;99.90
18043;DHT22;9146;48.074;11.968;2023-04-01T03:57:31;6.90;99.90
18043;DHT22;9146;48.074;11.968;2023-04-01T03:59:58;6.90;99.90
18043;DHT22;9146;48.074;11.968;2023-04-01T04:02:25;6.90;99.90
18043;DHT22;9146;48.074;11.968;2023-04-01T04:04:52;6.90;99.90
18043;DHT22;9146;48.074;11.968;2023-04-01T04:07:21;6.90;99.90
18043;DHT22;9146;48.074;11.968;2023-04-01T04:09:48;6.80;99.90
18043;DHT22;9146;48.074;11.968;2023-04-01T04:12:14;6.80;99.90
18043;DHT22;9146;48.074;11.968;2023-04-01T04:14:42;6.90;99.90
18043;DHT22;9146;48.074;11.968;2023-04-01T04:17:10;6.90;99.90
18043;DHT22;9146;48.074;11.968;2023-04-01T04:19:39;6.90;99.90
18043;DHT22;9146;48.074;11.968;2023-04-01T04:22:06;6.90;99.90
18043;DHT22;9146;48.074;11.968;2023-04-01T04:24:35;6.80;99.90
18043;DHT22;9146;48.074;11.968;2023-04-01T04:27:03;6.80;99.90
18043;DHT22;9146;48.074;11.968;2023-04-01T04:29:30;6.80;99.90
18043;DHT22;9146;48.074;11.968;2023-04-01T04:31:56;6.70;99.90
18043;DHT22;9146;48.074;11.968;2023-04-01T04:34:23;6.70;99.90
18043;DHT22;9146;48.074;11.968;2023-04-01T04:36:50;6.60;99.90
18043;DHT22;9146;48.074;11.968;2023-04-01T04:39:17;6.50;99.90
18043;DHT22;9146;48.074;11.968;2023-04-01T04:41:45;6.50;99.90
18043;DHT22;9146;48.074;11.968;2023-04-01T04:44:12;6.50;99.90
18043;DHT22;9146;48.074;11.968;2023-04-01T04:46:39;6.50;99.90
18043;DHT22;9146;48.074;11.968;2023-04-01T04:49:06;6.50;99.90
18043;DHT22;9146;48.074;11.968;2023-04-01T04:51:33;6.50;99.90
18043;DHT22;9146;48.074;11.968;2023-04-01T04:54:01;6.50;99.90
18043;DHT22;9146;48.074;11.968;2023-04-01T04:56:28;6.50;99.90
18043;DHT22;9146;48.074;11.968;2023-04-01T04:58:58;6.50;99.90
18043;DHT22;9146;48.074;11.968;2023-04-01T05:01:25;6.50;99.90
18043;DHT22;9146;48.074;11.968;2023-04-01T05:03:52;6.60;99.90
18043;DHT22;9146;48.074;11.968;2023-04-01T05:06:19;6.60;99.90
18043;DHT22;9146;48.074;11.968;2023-04-01T05:08:46;6.60;99.90
18043;DHT22;9146;48.074;11.968;2023-04-01T05:11:15;6.60;99.90
18043;DHT22;9146;48.074;11.968;2023-04-01T05:13:43;6.60;99.90
18043;DHT22;9146;48.074;11.968;2023-04-01T05:16:13;6.70;99.90
18043;DHT22;9146;48.074;11.968;2023-04-01T05:18:40;6.70;99.90
18043;DHT22;9146;48.074;11.968;2023-04-01T05:21:08;6.70;99.90
18043;DHT22;9146;48.074;11.968;2023-04-01T05:23:35;6.80;99.90
18043;DHT22;9146;48.074;11.968;2023-04-01T05:26:04;6.80;99.90
18043;DHT22;9146;48.074;11.968;2023-04-01T05:28:31;6.80;99.90
18043;DHT22;9146;48.074;11.968;2023-04-01T05:30:59;6.90;99.90
18043;DHT22;9146;48.074;11.968;2023-04-01T05:33:28;6.90;99.90
18043;DHT22;9146;48.074;11.968;2023-04-01T05:35:55;7.00;99.90
18043;DHT22;9146;48.074;11.968;2023-04-01T05:38:22;7.10;99.90
18043;DHT22;9146;48.074;11.968;2023-04-01T05:40:48;7.10;99.90
18043;DHT22;9146;48.074;11.968;2023-04-01T05:43:15;7.20;99.90
18043;DHT22;9146;48.074;11.968;2023-04-01T05:45:42;7.20;99.90
18043;DHT22;9146;48.074;11.968;2023-04-01T05:48:09;7.30;99.90
18043;DHT22;9146;48.074;11.968;2023-04-01T05:50:40;7.30;99.90
18043;DHT22;9146;48.074;11.968;2023-04-01T05:53:07;7.40;99.90
18043;DHT22;9146;48.074;11.968;2023-04-01T05:55:35;7.40;99.90
18043;DHT22;9146;48.074;11.968;2023-04-01T05:58:02;7.50;99.90
18043;DHT22;9146;48.074;11.968;2023-04-01T06:00:29;7.50;99.90
18043;DHT22;9146;48.074;11.968;2023-04-01T06:02:58;7.60;99.90
18043;DHT22;9146;48.074;11.968;2023-04-01T06:05:27;7.60;99.90
18043;DHT22;9146;48.074;11.968;2023-04-01T06:07:59;7.70;99.90
18043;DHT22;9146;48.074;11.968;2023-04-01T06:10:37;7.80;99.90
18043;DHT22;9146;48.074;11.968;2023-04-01T06:13:12;7.80;99.90
18043;DHT22;9146;48.074;11.968;2023-04-01T06:15:43;8.00;99.90
18043;DHT22;9146;48.074;11.968;2023-04-01T06:18:39;8.10;99.90
18043;DHT22;9146;48.074;11.968;2023-04-01T06:24:08;8.20;99.90
18043;DHT22;9146;48.074;11.968;2023-04-01T06:26:44;8.30;99.90
18043;DHT22;9146;48.074;11.968;2023-04-01T06:29:46;8.30;99.90
18043;DHT22;9146;48.074;11.968;2023-04-01T06:32:39;8.40;99.90
18043;DHT22;9146;48.074;11.968;2023-04-01T06:35:19;8.40;99.90
18043;DHT22;9146;48.074;11.968;2023-04-01T06:38:06;8.40;99.90
18043;DHT22;9146;48.074;11.968;2023-04-01T06:41:02;8.50;99.90
18043;DHT22;9146;48.074;11.968;2023-04-01T06:43:39;8.60;99.90
18043;DHT22;9146;48.074;11.968;2023-04-01T06:46:16;8.60;99.90
18043;DHT22;9146;48.074;11.968;2023-04-01T06:51:47;8.70;99.90
18043;DHT22;9146;48.074;11.968;2023-04-01T06:54:21;8.70;99.90
18043;DHT22;9146;48.074;11.968;2023-04-01T06:56:56;8.70;99.90
18043;DHT22;9146;48.074;11.968;2023-04-01T06:59:26;8.80;99.90
18043;DHT22;9146;48.074;11.968;2023-04-01T07:01:57;8.80;99.90
18043;DHT22;9146;48.074;11.968;2023-04-01T07:04:29;8.90;99.90
18043;DHT22;9146;48.074;11.968;2023-04-01T07:06:59;9.00;99.90
18043;DHT22;9146;48.074;11.968;2023-04-01T07:09:28;9.10;99.90
18043;DHT22;9146;48.074;11.968;2023-04-01T07:12:02;9.10;99.90
18043;DHT22;9146;48.074;11.968;2023-04-01T07:14:35;9.10;99.90
18043;DHT22;9146;48.074;11.968;2023-04-01T07:17:07;9.20;99.90
18043;DHT22;9146;48.074;11.968;2023-04-01T07:19:41;9.20;99.90
18043;DHT22;9146;48.074;11.968;2023-04-01T07:22:17;9.20;99.90
18043;DHT22;9146;48.074;11.968;2023-04-01T07:24:48;9.20;99.90
18043;DHT22;9146;48.074;11.968;2023-04-01T07:27:17;9.30;99.90
18043;DHT22;9146;48.074;11.968;2023-04-01T07:29:44;9.30;99.90
18043;DHT22;9146;48.074;11.968;2023-04-01T07:32:17;9.40;99.90
18043;DHT22;9146;48.074;11.968;2023-04-01T07:34:56;9.40;99.90
18043;DHT22;9146;48.074;11.968;2023-04-01T07:37:31;9.50;99.90
18043;DHT22;9146;48.074;11.968;2023-04-01T07:40:09;9.60;99.90
18043;DHT22;9146;48.074;11.968;2023-04-01T07:42:53;9.60;99.90
18043;DHT22;9146;48.074;11.968;2023-04-01T07:45:29;9.70;99.90
18043;DHT22;9146;48.074;11.968;2023-04-01T07:48:08;9.70;99.90
18043;DHT22;9146;48.074;11.968;2023-04-01T07:50:41;9.70;99.90
18043;DHT22;9146;48.074;11.968;2023-04-01T07:53:16;9.70;99.90
18043;DHT22;9146;48.074;11.968;2023-04-01T07:55:52;9.70;99.90
18043;DHT22;9146;48.074;11.968;2023-04-01T07:58:29;9.70;99.90
18043;DHT22;9146;48.074;11.968;2023-04-01T08:01:05;9.80;99.90
18043;DHT22;9146;48.074;11.968;2023-04-01T08:03:47;9.90;99.90
18043;DHT22;9146;48.074;11.968;2023-04-01T08:06:24;10.00;99.90
18043;DHT22;9146;48.074;11.968;2023-04-01T08:09:00;10.00;99.90
18043;DHT22;9146;48.074;11.968;2023-04-01T08:11:43;10.10;99.90
18043;DHT22;9146;48.074;11.968;2023-04-01T08:14:21;10.20;99.90
18043;DHT22;9146;48.074;11.968;2023-04-01T08:16:58;10.30;99.90
18043;DHT22;9146;48.074;11.968;2023-04-01T08:19:36;10.30;99.90
18043;DHT22;9146;48.074;11.968;2023-04-01T08:22:10;10.40;99.90
18043;DHT22;9146;48.074;11.968;2023-04-01T08:24:41;10.50;99.90
18043;DHT22;9146;48.074;11.968;2023-04-01T08:27:15;10.50;99.90
18043;DHT22;9146;48.074;11.968;2023-04-01T08:29:48;10.50;99.90
18043;DHT22;9146;48.074;11.968;2023-04-01T08:32:20;10.50;99.90
18043;DHT22;9146;48.074;11.968;2023-04-01T08:34:55;10.50;99.90
18043;DHT22;9146;48.074;11.968;2023-04-01T08:37:30;10.60;99.90
18043;DHT22;9146;48.074;11.968;2023-04-01T08:40:01;10.60;99.90
18043;DHT22;9146;48.074;11.968;2023-04-01T08:42:53;10.70;99.90
18043;DHT22;9146;48.074;11.968;2023-04-01T08:45:30;10.80;99.90
18043;DHT22;9146;48.074;11.968;2023-04-01T08:48:27;10.80;99.90
18043;DHT22;9146;48.074;11.968;2023-04-01T08:51:28;10.70;99.90
18043;DHT22;9146;48.074;11.968;2023-04-01T08:54:21;10.90;99.90
18043;DHT22;9146;48.074;11.968;2023-04-01T08:56:58;11.00;99.90
18043;DHT22;9146;48.074;11.968;2023-04-01T08:59:37;11.10;99.90
18043;DHT22;9146;48.074;11.968;2023-04-01T09:05:32;11.30;99.90
18043;DHT22;9146;48.074;11.968;2023-04-01T09:08:12;11.40;99.90
18043;DHT22;9146;48.074;11.968;2023-04-01T09:11:08;11.60;99.90
18043;DHT22;9146;48.074;11.968;2023-04-01T09:14:04;11.90;99.90
18043;DHT22;9146;48.074;11.968;2023-04-01T09:19:59;12.30;99.90
18043;DHT22;9146;48.074;11.968;2023-04-01T09:22:42;12.30;99.90
18043;DHT22;9146;48.074;11.968;2023-04-01T09:25:43;12.30;99.90
18043;DHT22;9146;48.074;11.968;2023-04-01T09:28:14;12.30;99.90
18043;DHT22;9146;48.074;11.968;2023-04-01T09:31:09;12.30;99.90
18043;DHT22;9146;48.074;11.968;2023-04-01T09:37:10;12.30;99.90
18043;DHT22;9146;48.074;11.968;2023-04-01T09:42:42;12.10;99.90
18043;DHT22;9146;48.074;11.968;2023-04-01T09:45:21;12.00;99.90
18043;DHT22;9146;48.074;11.968;2023-04-01T09:48:00;12.10;99.90
18043;DHT22;9146;48.074;11.968;2023-04-01T09:50:38;12.30;99.90
18043;DHT22;9146;48.074;11.968;2023-04-01T09:53:25;12.40;99.90
18043;DHT22;9146;48.074;11.968;2023-04-01T09:56:18;12.70;99.90
18043;DHT22;9146;48.074;11.968;2023-04-01T10:02:45;13.00;99.90
18043;DHT22;9146;48.074;11.968;2023-04-01T10:05:43;12.90;99.90
18043;DHT22;9146;48.074;11.968;2023-04-01T10:12:05;12.80;99.90
18043;DHT22;9146;48.074;11.968;2023-04-01T10:21:05;13.20;99.90
18043;DHT22;9146;48.074;11.968;2023-04-01T10:23:54;13.30;99.90
18043;DHT22;9146;48.074;11.968;2023-04-01T10:26:46;13.40;99.90
18043;DHT22;9146;48.074;11.968;2023-04-01T10:33:01;13.40;99.90
18043;DHT22;9146;48.074;11.968;2023-04-01T10:36:06;13.30;99.90
18043;DHT22;9146;48.074;11.968;2023-04-01T10:39:06;13.20;99.90
18043;DHT22;9146;48.074;11.968;2023-04-01T10:42:05;13.10;99.90
18043;DHT22;9146;48.074;11.968;2023-04-01T10:48:18;13.30;99.90
18043;DHT22;9146;48.074;11.968;2023-04-01T10:56:47;13.40;99.90
18043;DHT22;9146;48.074;11.968;2023-04-01T11:06:05;13.20;99.90
18043;DHT22;9146;48.074;11.968;2023-04-01T11:09:02;13.00;99.90
18043;DHT22;9146;48.074;11.968;2023-04-01T11:12:02;13.10;99.90
18043;DHT22;9146;48.074;11.968;2023-04-01T11:14:58;12.90;99.90
18043;DHT22;9146;48.074;11.968;2023-04-01T11:18:23;12.70;99.90
18043;DHT22;9146;48.074;11.968;2023-04-01T11:24:26;12.20;99.90
18043;DHT22;9146;48.074;11.968;2023-04-01T11:27:07;12.20;99.90
18043;DHT22;9146;48.074;11.968;2023-04-01T11:30:02;12.30;99.90
18043;DHT22;9146;48.074;11.968;2023-04-01T11:32:43;12.30;99.90
18043;DHT22;9146;48.074;11.968;2023-04-01T11:35:28;12.30;99.90
18043;DHT22;9146;48.074;11.968;2023-04-01T11:38:03;12.30;99.90
18043;DHT22;9146;48.074;11.968;2023-04-01T11:40:40;12.20;99.90
18043;DHT22;9146;48.074;11.968;2023-04-01T11:43:19;11.80;99.90
18043;DHT22;9146;48.074;11.968;2023-04-01T11:45:52;11.60;99.90
18043;DHT22;9146;48.074;11.968;2023-04-01T11:48:45;11.40;99.90
18043;DHT22;9146;48.074;11.968;2023-04-01T11:51:40;11.30;99.90
18043;DHT22;9146;48.074;11.968;2023-04-01T11:54:23;11.40;99.90
18043;DHT22;9146;48.074;11.968;2023-04-01T12:00:02;11.50;99.90
18043;DHT22;9146;48.074;11.968;2023-04-01T12:02:42;11.60;99.90
18043;DHT22;9146;48.074;11.968;2023-04-01T12:05:32;11.70;99.90
18043;DHT22;9146;48.074;11.968;2023-04-01T12:08:07;11.70;99.90
18043;DHT22;9146;48.074;11.968;2023-04-01T12:10:40;11.80;99.90
18043;DHT22;9146;48.074;11.968;2023-04-01T12:13:27;11.80;99.90
18043;DHT22;9146;48.074;11.968;2023-04-01T12:16:11;11.70;99.90
18043;DHT22;9146;48.074;11.968;2023-04-01T12:18:43;11.50;99.90
18043;DHT22;9146;48.074;11.968;2023-04-01T12:21:21;11.20;99.90
18043;DHT22;9146;48.074;11.968;2023-04-01T12:24:04;10.80;99.90
18043;DHT22;9146;48.074;11.968;2023-04-01T12:26:47;10.60;99.90
18043;DHT22;9146;48.074;11.968;2023-04-01T12:29:39;10.50;99.90
18043;DHT22;9146;48.074;11.968;2023-04-01T12:32:20;10.50;99.90
18043;DHT22;9146;48.074;11.968;2023-04-01T12:37:49;10.60;99.90
18043;DHT22;9146;48.074;11.968;2023-04-01T12:40:40;10.40;99.90
18043;DHT22;9146;48.074;11.968;2023-04-01T12:43:44;10.20;99.90
18043;DHT22;9146;48.074;11.968;2023-04-01T12:46:21;9.90;99.90
18043;DHT22;9146;48.074;11.968;2023-04-01T12:49:17;9.60;99.90
18043;DHT22;9146;48.074;11.968;2023-04-01T12:51:56;9.50;99.90
18043;DHT22;9146;48.074;11.968;2023-04-01T12:54:55;9.30;99.90
18043;DHT22;9146;48.074;11.968;2023-04-01T13:00:43;9.20;99.90
18043;DHT22;9146;48.074;11.968;2023-04-01T13:03:27;9.10;99.90
18043;DHT22;9146;48.074;11.968;2023-04-01T13:06:22;9.10;99.90
18043;DHT22;9146;48.074;11.968;2023-04-01T13:08:52;9.00;99.90
18043;DHT22;9146;48.074;11.968;2023-04-01T13:11:34;8.70;99.90
18043;DHT22;9146;48.074;11.968;2023-04-01T13:17:23;8.20;99.90
18043;DHT22;9146;48.074;11.968;2023-04-01T13:19:59;8.20;99.90
18043;DHT22;9146;48.074;11.968;2023-04-01T13:22:39;8.20;99.90
18043;DHT22;9146;48.074;11.968;2023-04-01T13:25:16;8.10;99.90
18043;DHT22;9146;48.074;11.968;2023-04-01T13:27:50;8.00;99.90
18043;DHT22;9146;48.074;11.968;2023-04-01T13:30:25;7.90;99.90
18043;DHT22;9146;48.074;11.968;2023-04-01T13:33:00;7.80;99.90
18043;DHT22;9146;48.074;11.968;2023-04-01T13:35:36;7.70;99.90
18043;DHT22;9146;48.074;11.968;2023-04-01T13:41:14;7.60;99.90
18043;DHT22;9146;48.074;11.968;2023-04-01T13:43:49;7.50;99.90
18043;DHT22;9146;48.074;11.968;2023-04-01T13:46:39;7.50;99.90
18043;DHT22;9146;48.074;11.968;2023-04-01T13:52:27;7.40;99.90
18043;DHT22;9146;48.074;11.968;2023-04-01T13:55:16;7.40;99.90
18043;DHT22;9146;48.074;11.968;2023-04-01T14:00:55;7.40;99.90
18043;DHT22;9146;48.074;11.968;2023-04-01T14:06:38;7.20;99.90
18043;DHT22;9146;48.074;11.968;2023-04-01T14:12:14;7.10;99.90
18043;DHT22;9146;48.074;11.968;2023-04-01T14:14:56;7.10;99.90
18043;DHT22;9146;48.074;11.968;2023-04-01T14:17:39;7.10;99.90
18043;DHT22;9146;48.074;11.968;2023-04-01T14:20:37;7.00;99.90
18043;DHT22;9146;48.074;11.968;2023-04-01T14:23:43;7.00;99.90
18043;DHT22;9146;48.074;11.968;2023-04-01T14:26:24;7.10;99.90
18043;DHT22;9146;48.074;11.968;2023-04-01T14:28:58;7.10;99.90
18043;DHT22;9146;48.074;11.968;2023-04-01T14:31:44;7.20;99.90
18043;DHT22;9146;48.074;11.968;2023-04-01T14:34:26;7.30;99.90
18043;DHT22;9146;48.074;11.968;2023-04-01T14:42:59;7.50;99.90
18043;DHT22;9146;48.074;11.968;2023-04-01T14:45:48;7.60;99.90
18043;DHT22;9146;48.074;11.968;2023-04-01T14:48:26;7.70;99.90
18043;DHT22;9146;48.074;11.968;2023-04-01T14:51:02;7.80;99.90
18043;DHT22;9146;48.074;11.968;2023-04-01T14:53:33;7.80;99.90
18043;DHT22;9146;48.074;11.968;2023-04-01T14:56:04;7.70;99.90
18043;DHT22;9146;48.074;11.968;2023-04-01T14:58:43;7.70;99.90
18043;DHT22;9146;48.074;11.968;2023-04-01T15:01:25;7.60;99.90
18043;DHT22;9146;48.074;11.968;2023-04-01T15:04:07;7.60;99.90
18043;DHT22;9146;48.074;11.968;2023-04-01T15:06:53;7.60;99.90
18043;DHT22;9146;48.074;11.968;2023-04-01T15:09:26;7.60;99.90
18043;DHT22;9146;48.074;11.968;2023-04-01T15:12:07;7.60;99.90
18043;DHT22;9146;48.074;11.968;2023-04-01T15:14:50;7.60;99.90
18043;DHT22;9146;48.074;11.968;2023-04-01T15:17:28;7.70;99.90
18043;DHT22;9146;48.074;11.968;2023-04-01T15:20:15;7.70;99.90
18043;DHT22;9146;48.074;11.968;2023-04-01T15:22:57;7.80;99.90
18043;DHT22;9146;48.074;11.968;2023-04-01T15:25:43;7.80;99.90
18043;DHT22;9146;48.074;11.968;2023-04-01T15:28:21;7.80;99.90
18043;DHT22;9146;48.074;11.968;2023-04-01T15:30:58;7.90;99.90
18043;DHT22;9146;48.074;11.968;2023-04-01T15:33:40;7.90;99.90
18043;DHT22;9146;48.074;11.968;2023-04-01T15:36:25;7.90;99.90
18043;DHT22;9146;48.074;11.968;2023-04-01T15:39:00;7.90;99.90
18043;DHT22;9146;48.074;11.968;2023-04-01T15:41:37;7.90;99.90
18043;DHT22;9146;48.074;11.968;2023-04-01T15:47:28;8.00;99.90
18043;DHT22;9146;48.074;11.968;2023-04-01T15:50:11;8.10;99.90
18043;DHT22;9146;48.074;11.968;2023-04-01T15:52:50;8.10;99.90
18043;DHT22;9146;48.074;11.968;2023-04-01T15:55:27;8.10;99.90
18043;DHT22;9146;48.074;11.968;2023-04-01T15:58:16;8.10;99.90
18043;DHT22;9146;48.074;11.968;2023-04-01T16:00:51;8.00;99.90
18043;DHT22;9146;48.074;11.968;2023-04-01T16:03:33;7.90;99.90
18043;DHT22;9146;48.074;11.968;2023-04-01T16:06:21;7.90;99.90
18043;DHT22;9146;48.074;11.968;2023-04-01T16:09:02;7.90;99.90
18043;DHT22;9146;48.074;11.968;2023-04-01T16:11:43;7.90;99.90
18043;DHT22;9146;48.074;11.968;2023-04-01T16:14:24;7.90;99.90
18043;DHT22;9146;48.074;11.968;2023-04-01T16:17:05;7.90;99.90
18043;DHT22;9146;48.074;11.968;2023-04-01T16:19:45;7.90;99.90
18043;DHT22;9146;48.074;11.968;2023-04-01T16:22:21;7.90;99.90
18043;DHT22;9146;48.074;11.968;2023-04-01T16:24:55;7.90;99.90
18043;DHT22;9146;48.074;11.968;2023-04-01T16:27:32;7.90;99.90
18043;DHT22;9146;48.074;11.968;2023-04-01T16:30:03;7.90;99.90
18043;DHT22;9146;48.074;11.968;2023-04-01T16:32:49;7.90;99.90
18043;DHT22;9146;48.074;11.968;2023-04-01T16:35:27;7.80;99.90
18043;DHT22;9146;48.074;11.968;2023-04-01T16:38:01;7.90;99.90
18043;DHT22;9146;48.074;11.968;2023-04-01T16:40:41;7.90;99.90
18043;DHT22;9146;48.074;11.968;2023-04-01T16:43:19;7.90;99.90
18043;DHT22;9146;48.074;11.968;2023-04-01T16:45:57;8.00;99.90
18043;DHT22;9146;48.074;11.968;2023-04-01T16:48:49;8.00;99.90
18043;DHT22;9146;48.074;11.968;2023-04-01T16:51:19;8.00;99.90
18043;DHT22;9146;48.074;11.968;2023-04-01T16:53:50;8.00;99.90
18043;DHT22;9146;48.074;11.968;2023-04-01T16:56:23;8.00;99.90
18043;DHT22;9146;48.074;11.968;2023-04-01T16:58:59;8.00;99.90
18043;DHT22;9146;48.074;11.968;2023-04-01T17:01:31;8.10;99.90
18043;DHT22;9146;48.074;11.968;2023-04-01T17:04:11;8.00;99.90
18043;DHT22;9146;48.074;11.968;2023-04-01T17:06:45;8.10;99.90
18043;DHT22;9146;48.074;11.968;2023-04-01T17:09:30;8.00;99.90
18043;DHT22;9146;48.074;11.968;2023-04-01T17:12:08;8.00;99.90
18043;DHT22;9146;48.074;11.968;2023-04-01T17:14:46;7.90;99.90
18043;DHT22;9146;48.074;11.968;2023-04-01T17:17:24;7.90;99.90
18043;DHT22;9146;48.074;11.968;2023-04-01T17:20:13;7.80;99.90
18043;DHT22;9146;48.074;11.968;2023-04-01T17:22:49;7.80;99.90
18043;DHT22;9146;48.074;11.968;2023-04-01T17:25:38;7.70;99.90
18043;DHT22;9146;48.074;11.968;2023-04-01T17:28:25;7.70;99.90
18043;DHT22;9146;48.074;11.968;2023-04-01T17:31:04;7.70;99.90
18043;DHT22;9146;48.074;11.968;2023-04-01T17:34:09;7.70;99.90
18043;DHT22;9146;48.074;11.968;2023-04-01T17:36:47;7.70;99.90
18043;DHT22;9146;48.074;11.968;2023-04-01T17:39:44;7.70;99.90
18043;DHT22;9146;48.074;11.968;2023-04-01T17:42:15;7.60;99.90
18043;DHT22;9146;48.074;11.968;2023-04-01T17:44:59;7.60;99.90
18043;DHT22;9146;48.074;11.968;2023-04-01T17:47:43;7.60;99.90
18043;DHT22;9146;48.074;11.968;2023-04-01T17:50:23;7.60;99.90
18043;DHT22;9146;48.074;11.968;2023-04-01T17:52:58;7.60;99.90
18043;DHT22;9146;48.074;11.968;2023-04-01T17:55:46;7.60;99.90
18043;DHT22;9146;48.074;11.968;2023-04-01T17:58:18;7.70;99.90
18043;DHT22;9146;48.074;11.968;2023-04-01T18:01:02;7.70;99.90
18043;DHT22;9146;48.074;11.968;2023-04-01T18:03:49;7.70;99.90
18043;DHT22;9146;48.074;11.968;2023-04-01T18:06:21;7.70;99.90
18043;DHT22;9146;48.074;11.968;2023-04-01T18:08:58;7.70;99.90
18043;DHT22;9146;48.074;11.968;2023-04-01T18:11:39;7.70;99.90
18043;DHT22;9146;48.074;11.968;2023-04-01T18:14:31;7.70;99.90